Time;durP1;ratioP1;P1;durP2;ratioP2;P2;SDS_P1;SDS_P2;PMS_P1;PMS_P2;Temp;Humidity;BMP_temperature;BMP_pressure;BME280_temperature;BME280_humidity;BME280_pressure;Samples;Min_cycle;Max_cycle;Signal;HPM_P1;HPM_P2
2023/04/13 00:00:46;;;;;;;0.10;0.10;;;5.20;99.90;;;;;;5097024;27;20428;-73
2023/04/13 00:03:15;;;;;;;0.10;0.10;;;5.20;99.90;;;;;;5098394;27;20422;-72
2023/04/13 00:05:51;;;;;;;0.10;0.10;;;5.20;99.90;;;;;;5113225;27;20443;-72
2023/04/13 00:08:21;;;;;;;0.10;0.10;;;5.20;99.90;;;;;;5088953;27;21025;-72
2023/04/13 00:10:49;;;;;;;0.10;0.10;;;5.20;1.00;;;;;;5102586;27;20507;-72
2023/04/13 00:13:17;;;;;;;0.10;0.10;;;5.20;99.90;;;;;;5102839;27;20452;-72
2023/04/13 00:15:45;;;;;;;0.10;0.10;;;5.20;1.00;;;;;;5102949;27;20807;-73
2023/04/13 00:18:11;;;;;;;0.10;0.10;;;5.10;1.00;;;;;;5102993;27;20525;-72
2023/04/13 00:20:40;;;;;;;0.25;0.25;;;5.00;1.00;;;;;;5101661;27;20434;-73
2023/04/13 00:23:07;;;;;;;0.10;0.10;;;5.10;1.00;;;;;;5099802;27;20432;-72
2023/04/13 00:25:34;;;;;;;0.30;0.20;;;5.00;1.00;;;;;;5106102;27;20461;-73
2023/04/13 00:28:05;;;;;;;0.10;0.10;;;4.90;1.00;;;;;;5100173;27;20420;-73
2023/04/13 00:30:32;;;;;;;0.10;0.10;;;4.80;1.00;;;;;;5106392;27;21058;-72
2023/04/13 00:33:02;;;;;;;0.50;0.20;;;4.80;1.00;;;;;;5099180;27;20457;-73
2023/04/13 00:35:29;;;;;;;0.10;0.10;;;4.70;1.00;;;;;;5099896;27;20422;-73
2023/04/13 00:37:57;;;;;;;0.20;0.20;;;4.60;1.00;;;;;;5110701;27;20515;-73
2023/04/13 00:40:24;;;;;;;0.10;0.10;;;4.60;85.40;;;;;;5105868;27;20424;-73
2023/04/13 00:42:51;;;;;;;0.10;0.10;;;4.50;99.90;;;;;;5100960;27;20422;-73
2023/04/13 00:45:18;;;;;;;0.10;0.10;;;4.40;99.90;;;;;;5096684;27;20496;-73
2023/04/13 00:47:49;;;;;;;0.20;0.20;;;4.20;99.90;;;;;;5107967;27;20421;-73
2023/04/13 00:50:19;;;;;;;0.25;0.25;;;4.10;99.90;;;;;;5101519;28;20863;-73
2023/04/13 00:52:47;;;;;;;0.10;0.10;;;4.20;16.70;;;;;;5109576;27;20421;-73
2023/04/13 00:55:19;;;;;;;0.10;0.10;;;4.10;1.00;;;;;;5112175;27;20432;-73
2023/04/13 00:57:48;;;;;;;0.17;0.17;;;4.10;99.90;;;;;;5098935;27;20422;-73
2023/04/13 01:00:16;;;;;;;1.08;0.30;;;4.20;99.90;;;;;;5095574;28;20430;-72
2023/04/13 01:02:43;;;;;;;0.10;0.10;;;4.20;99.90;;;;;;5107677;27;20426;-73
2023/04/13 01:05:14;;;;;;;0.10;0.10;;;4.20;70.30;;;;;;5095069;27;20432;-73
2023/04/13 01:08:02;;;;;;;0.10;0.10;;;4.20;1.00;;;;;;5099262;27;21463;-73
2023/04/13 01:10:45;;;;;;;0.20;0.20;;;4.30;1.00;;;;;;5105367;27;20420;-73
2023/04/13 01:13:19;;;;;;;0.15;0.15;;;4.30;1.00;;;;;;5099481;27;20422;-73
2023/04/13 01:16:12;;;;;;;0.10;0.10;;;4.30;99.90;;;;;;5096318;27;21502;-73
2023/04/13 01:18:40;;;;;;;0.20;0.20;;;4.30;99.90;;;;;;5096692;27;20925;-73
2023/04/13 01:21:11;;;;;;;0.10;0.10;;;4.20;99.90;;;;;;5106989;27;20423;-74
2023/04/13 01:23:41;;;;;;;0.20;0.20;;;4.00;99.90;;;;;;5100736;27;20453;-73
2023/04/13 01:26:09;;;;;;;1.00;0.60;;;3.90;1.00;;;;;;5103474;27;20434;-73
2023/04/13 01:28:37;;;;;;;0.10;0.10;;;4.00;62.50;;;;;;5096731;28;20414;-73
2023/04/13 01:31:05;;;;;;;0.17;0.17;;;3.90;1.00;;;;;;5098261;28;20424;-73
2023/04/13 01:33:32;;;;;;;0.10;0.10;;;3.90;99.90;;;;;;5104222;27;20433;-73
2023/04/13 01:36:01;;;;;;;0.32;0.32;;;4.00;99.90;;;;;;5101122;27;20431;-73
2023/04/13 01:38:28;;;;;;;0.10;0.10;;;4.10;1.00;;;;;;5099477;28;20434;-73
2023/04/13 01:40:56;;;;;;;0.10;0.10;;;4.20;99.90;;;;;;5100338;28;20984;-73
2023/04/13 01:43:24;;;;;;;0.15;0.15;;;4.40;1.00;;;;;;5095468;28;20491;-74
2023/04/13 01:46:03;;;;;;;0.32;0.20;;;4.40;1.00;;;;;;5093349;28;20534;-73
2023/04/13 01:48:41;;;;;;;0.15;0.15;;;4.40;99.90;;;;;;5104837;28;21108;-73
2023/04/13 01:51:15;;;;;;;0.40;0.40;;;4.30;99.90;;;;;;5101726;28;20521;-73
2023/04/13 01:53:49;;;;;;;0.20;0.20;;;4.20;99.90;;;;;;5091122;28;20434;-73
2023/04/13 01:56:18;;;;;;;0.20;0.20;;;4.20;1.00;;;;;;5101832;28;20428;-73
2023/04/13 01:58:55;;;;;;;0.20;0.20;;;4.20;1.00;;;;;;5105968;28;20432;-73
2023/04/13 02:01:22;;;;;;;0.20;0.20;;;4.20;1.00;;;;;;5100808;28;20434;-73
2023/04/13 02:03:50;;;;;;;0.20;0.20;;;4.10;1.00;;;;;;5103078;28;20432;-73
2023/04/13 02:06:17;;;;;;;0.27;0.27;;;4.10;1.00;;;;;;5104336;28;20428;-73
2023/04/13 02:08:44;;;;;;;0.20;0.20;;;4.10;1.00;;;;;;5096153;28;20807;-74
2023/04/13 02:11:14;;;;;;;0.60;0.60;;;4.20;1.00;;;;;;5098831;28;20932;-73
2023/04/13 02:13:41;;;;;;;0.20;0.20;;;4.30;99.90;;;;;;5095055;27;20430;-73
2023/04/13 02:16:08;;;;;;;0.20;0.20;;;4.30;99.90;;;;;;5100157;27;20446;-74
2023/04/13 02:18:37;;;;;;;0.20;0.20;;;4.20;99.90;;;;;;5107304;27;20878;-73
2023/04/13 02:21:10;;;;;;;0.28;0.28;;;4.20;99.90;;;;;;5106445;27;20468;-74
2023/04/13 02:23:39;;;;;;;0.20;0.20;;;4.10;1.00;;;;;;5099918;27;20436;-73
2023/04/13 02:26:07;;;;;;;0.20;0.20;;;4.00;1.00;;;;;;5103989;27;20533;-74
2023/04/13 02:28:34;;;;;;;0.30;0.30;;;4.10;11.20;;;;;;5113782;27;20414;-74
2023/04/13 02:31:02;;;;;;;0.20;0.20;;;4.40;1.00;;;;;;5102179;27;20485;-73
2023/04/13 02:33:30;;;;;;;0.20;0.20;;;4.60;99.90;;;;;;5101366;27;21176;-73
2023/04/13 02:35:58;;;;;;;0.30;0.30;;;4.90;1.00;;;;;;5101544;27;20521;-74
2023/04/13 02:38:26;;;;;;;0.40;0.32;;;5.00;1.00;;;;;;5095065;27;20430;-73
2023/04/13 02:40:54;;;;;;;0.50;0.30;;;5.20;1.00;;;;;;5091946;28;20505;-74
2023/04/13 02:43:21;;;;;;;0.17;0.17;;;5.30;1.00;;;;;;5102445;27;20417;-74
2023/04/13 02:45:49;;;;;;;0.50;0.20;;;5.40;1.00;;;;;;5110632;27;20896;-73
2023/04/13 02:48:15;;;;;;;0.20;0.20;;;5.40;1.00;;;;;;5115605;27;20426;-74
2023/04/13 02:50:42;;;;;;;0.50;0.50;;;5.40;1.00;;;;;;5122254;27;20428;-73
2023/04/13 02:53:09;;;;;;;0.20;0.20;;;5.60;1.00;;;;;;5103709;27;20437;-74
2023/04/13 02:55:36;;;;;;;0.20;0.20;;;5.70;99.90;;;;;;5103696;27;20513;-73
2023/04/13 02:58:08;;;;;;;0.20;0.20;;;5.90;1.00;;;;;;5096607;27;20429;-73
2023/04/13 03:00:37;;;;;;;0.20;0.20;;;6.00;1.00;;;;;;5098403;27;20434;-73
2023/04/13 03:03:05;;;;;;;0.20;0.20;;;6.10;63.90;;;;;;5098009;27;20461;-73
2023/04/13 03:05:32;;;;;;;0.20;0.20;;;6.10;99.90;;;;;;5096319;27;20449;-73
2023/04/13 03:07:59;;;;;;;0.40;0.40;;;6.10;99.90;;;;;;5124973;27;20429;-74
2023/04/13 03:10:26;;;;;;;0.30;0.30;;;6.10;99.90;;;;;;5119763;27;20501;-73
2023/04/13 03:12:53;;;;;;;0.10;0.10;;;6.10;99.90;;;;;;5109052;27;20460;-73
2023/04/13 03:15:20;;;;;;;0.90;0.30;;;6.20;99.90;;;;;;5102031;27;20426;-73
2023/04/13 03:17:47;;;;;;;0.15;0.15;;;6.30;99.90;;;;;;5108134;27;20951;-74
2023/04/13 03:20:15;;;;;;;0.20;0.20;;;6.30;99.90;;;;;;5105264;27;20530;-74
2023/04/13 03:22:43;;;;;;;0.20;0.20;;;6.40;99.90;;;;;;5100276;27;20522;-73
2023/04/13 03:25:11;;;;;;;0.20;0.20;;;6.40;99.90;;;;;;5116462;27;20422;-73
2023/04/13 03:27:38;;;;;;;0.20;0.20;;;6.40;99.90;;;;;;5098931;27;20588;-74
2023/04/13 03:30:06;;;;;;;0.28;0.28;;;6.40;99.90;;;;;;5099719;27;20426;-74
2023/04/13 03:32:33;;;;;;;0.20;0.20;;;6.40;99.90;;;;;;5104477;27;20437;-73
2023/04/13 03:35:00;;;;;;;0.10;0.10;;;6.40;99.90;;;;;;5104440;27;20499;-73
2023/04/13 03:37:28;;;;;;;0.10;0.10;;;6.30;99.90;;;;;;5105128;27;20951;-74
2023/04/13 03:39:56;;;;;;;0.20;0.20;;;6.40;99.90;;;;;;5114342;27;20525;-73
2023/04/13 03:42:23;;;;;;;0.20;0.20;;;6.40;99.90;;;;;;5112295;27;20760;-74
2023/04/13 03:44:50;;;;;;;0.60;0.60;;;6.40;99.90;;;;;;5100500;27;20451;-74
2023/04/13 03:47:20;;;;;;;1.10;0.27;;;6.40;99.90;;;;;;5101655;27;20449;-74
2023/04/13 03:49:49;;;;;;;0.20;0.20;;;6.40;99.90;;;;;;5100689;27;20470;-74
2023/04/13 03:52:15;;;;;;;0.68;0.30;;;6.40;99.90;;;;;;5098741;27;20518;-74
2023/04/13 03:54:42;;;;;;;0.50;0.22;;;6.40;99.90;;;;;;5113670;27;20957;-74
2023/04/13 03:57:10;;;;;;;0.20;0.20;;;6.40;99.90;;;;;;5105729;27;20424;-74
2023/04/13 03:59:39;;;;;;;0.20;0.20;;;6.40;99.90;;;;;;5110273;27;20973;-74
2023/04/13 04:02:06;;;;;;;0.20;0.20;;;6.40;99.90;;;;;;5103977;27;20525;-74
2023/04/13 04:04:33;;;;;;;0.17;0.17;;;6.50;99.90;;;;;;5100884;27;20450;-73
2023/04/13 04:07:00;;;;;;;0.10;0.10;;;6.50;99.90;;;;;;5105102;27;20855;-74
2023/04/13 04:09:26;;;;;;;0.20;0.20;;;6.50;99.90;;;;;;5103877;27;20496;-73
2023/04/13 04:11:53;;;;;;;0.10;0.10;;;6.50;99.90;;;;;;5113722;27;20504;-73
2023/04/13 04:14:21;;;;;;;0.10;0.10;;;6.50;99.90;;;;;;5104253;27;20466;-74
2023/04/13 04:16:48;;;;;;;0.10;0.10;;;6.50;99.90;;;;;;5102392;27;20429;-74
2023/04/13 04:19:15;;;;;;;0.40;0.40;;;6.50;99.90;;;;;;5118875;27;20430;-74
2023/04/13 04:21:45;;;;;;;0.20;0.20;;;6.50;99.90;;;;;;5106690;27;20434;-74
2023/04/13 04:24:22;;;;;;;0.27;0.27;;;6.50;99.90;;;;;;5102248;27;20435;-74
2023/04/13 04:26:49;;;;;;;0.40;0.40;;;6.60;99.90;;;;;;5107535;27;20422;-74
2023/04/13 04:29:20;;;;;;;0.38;0.38;;;6.50;99.90;;;;;;5107378;27;20506;-73
2023/04/13 04:31:52;;;;;;;0.30;0.30;;;6.50;99.90;;;;;;5103811;27;20433;-74
2023/04/13 04:34:22;;;;;;;0.40;0.40;;;6.50;99.90;;;;;;5101763;27;20515;-73
2023/04/13 04:36:50;;;;;;;0.15;0.15;;;6.50;99.90;;;;;;5107516;27;20499;-74
2023/04/13 04:39:21;;;;;;;0.50;0.50;;;6.50;99.90;;;;;;5104504;27;20426;-74
2023/04/13 04:42:01;;;;;;;0.28;0.28;;;6.50;99.90;;;;;;5092650;27;20432;-74
2023/04/13 04:44:29;;;;;;;0.47;0.27;;;6.50;99.90;;;;;;5102977;27;20447;-74
2023/04/13 04:47:01;;;;;;;0.20;0.20;;;6.60;99.90;;;;;;5098635;27;20524;-74
2023/04/13 04:49:36;;;;;;;0.35;0.35;;;6.60;99.90;;;;;;5106179;27;20506;-74
2023/04/13 04:52:03;;;;;;;0.20;0.20;;;6.60;99.90;;;;;;5098329;27;21003;-74
2023/04/13 04:54:30;;;;;;;0.28;0.28;;;6.60;99.90;;;;;;5106620;27;20521;-74
2023/04/13 04:57:00;;;;;;;0.32;0.32;;;6.70;99.90;;;;;;5111548;27;20455;-74
2023/04/13 04:59:27;;;;;;;0.20;0.20;;;6.70;99.90;;;;;;5099862;27;20506;-74
2023/04/13 05:01:54;;;;;;;1.58;0.30;;;6.70;99.90;;;;;;5104637;27;20487;-75
2023/04/13 05:04:24;;;;;;;4.20;0.50;;;6.80;99.90;;;;;;5098527;27;20524;-76
2023/04/13 05:06:53;;;;;;;0.20;0.20;;;6.70;99.90;;;;;;5105504;27;20419;-75
2023/04/13 05:09:20;;;;;;;0.20;0.20;;;6.80;99.90;;;;;;5102760;27;20424;-75
2023/04/13 05:11:47;;;;;;;0.32;0.32;;;6.80;99.90;;;;;;5106195;27;20509;-77
2023/04/13 05:14:14;;;;;;;0.20;0.20;;;6.80;99.90;;;;;;5097082;27;20505;-76
2023/04/13 05:16:41;;;;;;;4.30;0.60;;;6.80;99.90;;;;;;5095834;28;20507;-75
2023/04/13 05:19:09;;;;;;;1.70;0.60;;;6.80;99.90;;;;;;5096572;27;21131;-74
2023/04/13 05:21:35;;;;;;;0.22;0.22;;;6.80;99.90;;;;;;5094433;27;20426;-73
2023/04/13 05:24:05;;;;;;;0.20;0.20;;;6.90;99.90;;;;;;5094140;27;21192;-75
2023/04/13 05:26:33;;;;;;;0.20;0.20;;;6.80;99.90;;;;;;5092737;27;20466;-74
2023/04/13 05:29:00;;;;;;;0.60;0.38;;;6.80;99.90;;;;;;5096893;28;21505;-75
2023/04/13 05:31:27;;;;;;;0.20;0.20;;;6.80;99.90;;;;;;5106378;27;20903;-75
2023/04/13 05:33:56;;;;;;;0.17;0.17;;;6.80;99.90;;;;;;5098378;28;20974;-74
2023/04/13 05:36:23;;;;;;;0.20;0.13;;;6.80;99.90;;;;;;5097029;27;20438;-77
2023/04/13 05:38:50;;;;;;;4.60;0.20;;;6.80;99.90;;;;;;5094187;28;20428;-75
2023/04/13 05:41:17;;;;;;;0.70;0.20;;;6.80;99.90;;;;;;5096737;28;20434;-74
2023/04/13 05:43:45;;;;;;;0.20;0.20;;;6.90;99.90;;;;;;5101669;28;20438;-75
2023/04/13 05:46:11;;;;;;;2.00;0.57;;;6.90;99.90;;;;;;5097939;27;20438;-75
2023/04/13 05:48:38;;;;;;;0.30;0.30;;;7.00;99.90;;;;;;5096678;27;20417;-76
2023/04/13 05:51:07;;;;;;;0.20;0.20;;;7.10;99.90;;;;;;5111481;27;20509;-75
2023/04/13 05:53:35;;;;;;;0.40;0.40;;;7.20;99.90;;;;;;5101750;27;20431;-75
2023/04/13 05:56:02;;;;;;;0.20;0.20;;;7.30;99.90;;;;;;5094464;27;21568;-75
2023/04/13 05:58:29;;;;;;;0.20;0.20;;;7.30;99.90;;;;;;5107938;27;20428;-75
2023/04/13 06:00:55;;;;;;;0.20;0.20;;;7.30;99.90;;;;;;5101016;27;21171;-76
2023/04/13 06:03:24;;;;;;;1.90;0.50;;;7.30;99.90;;;;;;5101748;27;20513;-75
2023/04/13 06:05:51;;;;;;;0.30;0.30;;;7.30;99.90;;;;;;5105608;27;20425;-75
2023/04/13 06:08:20;;;;;;;0.30;0.30;;;7.40;99.90;;;;;;5099522;27;20426;-75
2023/04/13 06:10:47;;;;;;;0.30;0.30;;;7.40;99.90;;;;;;5109146;27;20425;-75
2023/04/13 06:13:14;;;;;;;0.75;0.22;;;7.40;99.90;;;;;;5122783;27;20426;-75
2023/04/13 06:15:41;;;;;;;0.77;0.50;;;7.40;99.90;;;;;;5091733;27;20441;-74
2023/04/13 06:18:10;;;;;;;0.77;0.30;;;7.40;99.90;;;;;;5092994;28;20432;-75
2023/04/13 06:20:38;;;;;;;0.30;0.30;;;7.40;99.90;;;;;;5099848;27;20444;-75
2023/04/13 06:23:08;;;;;;;0.30;0.30;;;7.40;99.90;;;;;;5096840;27;20471;-75
2023/04/13 06:25:35;;;;;;;0.40;0.40;;;7.30;99.90;;;;;;5101897;27;20570;-74
2023/04/13 06:28:03;;;;;;;0.90;0.60;;;7.30;99.90;;;;;;5090232;27;20896;-74
2023/04/13 06:30:30;;;;;;;0.60;0.30;;;7.30;99.90;;;;;;5111095;27;20426;-75
2023/04/13 06:32:57;;;;;;;0.10;0.10;;;7.30;99.90;;;;;;5111542;27;20851;-75
2023/04/13 06:35:24;;;;;;;0.70;0.40;;;7.40;99.90;;;;;;5097583;27;20442;-74
2023/04/13 06:37:51;;;;;;;0.30;0.30;;;7.50;99.90;;;;;;5105481;27;20418;-75
2023/04/13 06:40:19;;;;;;;0.20;0.20;;;7.50;99.90;;;;;;5098230;27;20459;-75
2023/04/13 06:42:46;;;;;;;0.40;0.40;;;7.60;99.90;;;;;;5097183;27;20430;-74
2023/04/13 06:45:13;;;;;;;2.80;0.43;;;7.70;99.90;;;;;;5102241;27;20523;-75
2023/04/13 06:47:40;;;;;;;1.30;0.40;;;7.70;99.90;;;;;;5104101;27;20939;-74
2023/04/13 06:50:09;;;;;;;0.77;0.45;;;7.70;99.90;;;;;;5098090;27;20427;-74
2023/04/13 06:52:36;;;;;;;0.50;0.50;;;7.80;99.90;;;;;;5089745;27;20428;-74
2023/04/13 06:55:04;;;;;;;4.30;0.40;;;7.90;99.90;;;;;;5099047;27;20430;-75
2023/04/13 06:57:31;;;;;;;1.05;0.32;;;7.90;99.90;;;;;;5098626;27;20456;-74
2023/04/13 06:59:58;;;;;;;1.50;0.20;;;8.10;99.90;;;;;;5095547;27;20460;-74
2023/04/13 07:02:26;;;;;;;0.20;0.20;;;8.30;99.90;;;;;;5099902;27;20934;-74
2023/04/13 07:04:53;;;;;;;0.30;0.30;;;8.50;99.90;;;;;;5104710;27;22955;-74
2023/04/13 07:07:23;;;;;;;2.30;0.32;;;8.80;99.90;;;;;;5109289;27;20501;-74
2023/04/13 07:09:50;;;;;;;0.50;0.35;;;8.80;99.90;;;;;;5094973;27;20506;-74
2023/04/13 07:12:17;;;;;;;0.30;0.30;;;8.70;99.90;;;;;;5104201;27;20475;-74
2023/04/13 07:14:47;;;;;;;0.80;0.60;;;8.60;99.90;;;;;;5098508;27;20495;-74
2023/04/13 07:17:15;;;;;;;1.90;0.40;;;8.70;99.90;;;;;;5097875;27;20417;-74
2023/04/13 07:19:46;;;;;;;1.30;0.40;;;8.80;99.90;;;;;;5113004;27;20429;-75
2023/04/13 07:22:13;;;;;;;0.25;0.25;;;8.90;99.90;;;;;;5102148;27;20504;-74
2023/04/13 07:24:41;;;;;;;0.20;0.20;;;8.90;99.90;;;;;;5095513;27;20418;-74
2023/04/13 07:27:07;;;;;;;0.30;0.30;;;8.80;99.90;;;;;;5091372;27;20428;-76
2023/04/13 07:29:36;;;;;;;0.32;0.32;;;8.70;99.90;;;;;;5103870;27;20545;-74
2023/04/13 07:32:05;;;;;;;0.65;0.65;;;8.70;99.90;;;;;;5098099;27;20433;-74
2023/04/13 07:34:32;;;;;;;5.60;0.30;;;8.70;99.90;;;;;;5094187;27;20475;-74
2023/04/13 07:36:59;;;;;;;2.90;0.30;;;8.60;99.90;;;;;;5091341;28;20962;-74
2023/04/13 07:39:29;;;;;;;4.30;0.80;;;8.60;99.90;;;;;;5112936;27;20433;-74
2023/04/13 07:41:58;;;;;;;1.57;1.07;;;8.40;99.90;;;;;;5108583;27;20927;-74
2023/04/13 07:44:25;;;;;;;1.60;0.70;;;8.30;99.90;;;;;;5095583;27;20465;-75
2023/04/13 07:46:55;;;;;;;0.30;0.30;;;8.30;99.90;;;;;;5094669;28;20432;-75
2023/04/13 07:49:22;;;;;;;0.30;0.30;;;8.30;99.90;;;;;;5104192;27;20421;-75
2023/04/13 07:51:52;;;;;;;0.23;0.23;;;8.40;99.90;;;;;;5092399;27;20425;-75
2023/04/13 07:54:20;;;;;;;0.30;0.30;;;8.50;99.90;;;;;;5108484;27;20460;-74
2023/04/13 07:56:47;;;;;;;0.90;0.40;;;8.60;99.90;;;;;;5117727;27;20437;-75
2023/04/13 07:59:14;;;;;;;0.30;0.30;;;8.60;99.90;;;;;;5111822;27;20506;-75
2023/04/13 08:01:41;;;;;;;0.30;0.30;;;8.70;99.90;;;;;;5089428;28;20427;-74
2023/04/13 08:04:07;;;;;;;0.17;0.17;;;8.80;99.90;;;;;;5087840;28;20946;-75
2023/04/13 08:06:35;;;;;;;1.20;0.40;;;9.10;99.90;;;;;;5108154;27;20484;-75
2023/04/13 08:09:02;;;;;;;0.70;0.30;;;9.60;99.90;;;;;;5107537;27;20431;-75
2023/04/13 08:11:29;;;;;;;0.60;0.25;;;10.00;99.90;;;;;;5118840;27;20435;-75
2023/04/13 08:13:56;;;;;;;0.83;0.30;;;10.00;99.90;;;;;;5090741;27;20433;-74
2023/04/13 08:16:23;;;;;;;0.13;0.13;;;10.00;99.90;;;;;;5089926;28;20436;-76
2023/04/13 08:18:53;;;;;;;0.13;0.13;;;10.10;99.90;;;;;;5102328;28;20463;-75
2023/04/13 08:21:19;;;;;;;0.20;0.20;;;9.80;99.90;;;;;;5097321;27;20432;-75
2023/04/13 08:23:46;;;;;;;0.30;0.30;;;9.60;99.90;;;;;;5101858;27;20849;-75
2023/04/13 08:26:17;;;;;;;0.25;0.25;;;9.50;99.90;;;;;;5093141;27;20509;-75
2023/04/13 08:28:48;;;;;;;0.35;0.35;;;9.40;99.90;;;;;;5099306;27;22009;-75
2023/04/13 08:31:15;;;;;;;0.50;0.30;;;9.30;99.90;;;;;;5087213;28;20425;-75
2023/04/13 08:33:42;;;;;;;1.00;0.30;;;9.50;99.90;;;;;;5095063;28;20498;-75
2023/04/13 08:36:09;;;;;;;1.50;0.28;;;9.60;99.90;;;;;;5090808;28;20512;-76
2023/04/13 08:38:36;;;;;;;0.40;0.40;;;9.60;99.90;;;;;;5099075;28;20904;-74
2023/04/13 08:41:03;;;;;;;0.28;0.28;;;9.60;99.90;;;;;;5097125;28;20432;-76
2023/04/13 08:43:36;;;;;;;2.80;0.38;;;9.60;99.90;;;;;;5097564;27;20436;-75
2023/04/13 08:46:05;;;;;;;0.40;0.40;;;9.60;99.90;;;;;;5091389;27;20982;-75
2023/04/13 08:48:43;;;;;;;2.75;0.35;;;9.70;99.90;;;;;;5100973;27;20459;-75
2023/04/13 08:51:21;;;;;;;0.20;0.20;;;9.80;99.90;;;;;;5094574;27;20819;-75
2023/04/13 08:53:52;;;;;;;0.60;0.60;;;9.70;99.90;;;;;;5110857;27;20441;-75
2023/04/13 08:56:19;;;;;;;1.50;0.43;;;9.80;99.90;;;;;;5105174;27;20430;-75
2023/04/13 08:59:05;;;;;;;0.20;0.20;;;9.90;99.90;;;;;;5091282;28;20523;-74
2023/04/13 09:01:35;;;;;;;0.88;0.52;;;9.90;99.90;;;;;;5106562;27;20428;-75
2023/04/13 09:04:12;;;;;;;1.70;0.80;;;9.80;99.90;;;;;;5099837;28;20485;-75
2023/04/13 09:06:41;;;;;;;2.47;0.80;;;10.00;99.90;;;;;;5100879;27;20426;-76
2023/04/13 09:09:10;;;;;;;0.20;0.20;;;10.00;99.90;;;;;;5115710;27;20468;-75
2023/04/13 09:11:38;;;;;;;0.50;0.30;;;10.00;99.90;;;;;;5106027;27;20434;-75
2023/04/13 09:14:08;;;;;;;0.20;0.20;;;10.20;99.90;;;;;;5087588;28;20429;-75
2023/04/13 09:16:42;;;;;;;0.38;0.30;;;10.50;99.90;;;;;;5101357;27;20518;-75
2023/04/13 09:19:10;;;;;;;0.20;0.20;;;11.10;99.90;;;;;;5099994;28;20512;-75
2023/04/13 09:21:43;;;;;;;0.22;0.22;;;11.30;99.90;;;;;;5107242;27;20430;-75
2023/04/13 09:24:11;;;;;;;0.30;0.30;;;10.90;99.90;;;;;;5100874;28;20440;-75
2023/04/13 09:26:42;;;;;;;0.28;0.28;;;11.00;99.90;;;;;;5102785;28;20446;-75
2023/04/13 09:29:17;;;;;;;1.70;0.25;;;11.20;99.90;;;;;;5112497;27;20422;-76
2023/04/13 09:31:45;;;;;;;0.25;0.25;;;11.20;99.90;;;;;;5095360;27;20789;-75
2023/04/13 09:34:13;;;;;;;0.35;0.35;;;11.50;99.90;;;;;;5114681;27;20510;-75
2023/04/13 09:36:40;;;;;;;0.50;0.20;;;11.70;99.90;;;;;;5108206;27;20423;-78
2023/04/13 09:39:27;;;;;;;0.20;0.20;;;12.20;99.90;;;;;;5093646;27;20426;-74
2023/04/13 09:41:55;;;;;;;3.17;0.60;;;12.50;99.90;;;;;;5099253;28;20506;-75
2023/04/13 09:44:33;;;;;;;0.50;0.30;;;12.70;99.90;;;;;;5100521;27;20425;-74
2023/04/13 09:47:03;;;;;;;0.50;0.50;;;12.40;99.90;;;;;;5086814;28;20497;-75
2023/04/13 09:49:41;;;;;;;0.45;0.30;;;13.00;99.90;;;;;;5098856;28;20440;-75
2023/04/13 09:52:21;;;;;;;0.20;0.20;;;13.20;99.90;;;;;;5114120;28;20560;-75
2023/04/13 09:54:54;;;;;;;0.10;0.10;;;13.00;99.90;;;;;;5102990;27;20480;-76
2023/04/13 09:57:27;;;;;;;0.60;0.40;;;13.40;99.90;;;;;;5106167;28;20886;-75
2023/04/13 09:59:56;;;;;;;0.30;0.30;;;12.90;99.90;;;;;;5089178;28;20819;-75
2023/04/13 10:02:26;;;;;;;0.38;0.35;;;12.90;99.90;;;;;;5092646;28;20424;-75
2023/04/13 10:04:54;;;;;;;0.30;0.30;;;12.90;99.90;;;;;;5095548;28;20449;-75
2023/04/13 10:07:28;;;;;;;0.10;0.10;;;13.20;99.90;;;;;;5089523;28;20438;-76
2023/04/13 10:09:55;;;;;;;1.00;0.50;;;13.40;99.90;;;;;;5118017;28;20522;-76
2023/04/13 10:12:24;;;;;;;0.40;0.30;;;13.50;99.90;;;;;;5105744;28;20517;-75
2023/04/13 10:15:06;;;;;;;0.27;0.27;;;13.80;99.90;;;;;;5102493;28;20892;-75
2023/04/13 10:17:52;;;;;;;0.50;0.50;;;14.00;99.90;;;;;;5119392;28;20434;-75
2023/04/13 10:20:20;;;;;;;1.20;0.40;;;13.60;99.90;;;;;;5119697;27;20418;-76
2023/04/13 10:22:47;;;;;;;0.60;0.40;;;13.70;99.90;;;;;;5104228;27;20436;-75
2023/04/13 10:25:17;;;;;;;0.40;0.40;;;13.20;99.90;;;;;;5096717;28;20460;-75
2023/04/13 10:27:59;;;;;;;0.22;0.20;;;13.10;99.90;;;;;;5096125;28;20908;-75
2023/04/13 10:30:27;;;;;;;1.50;0.43;;;12.50;99.90;;;;;;5108841;28;20412;-76
2023/04/13 10:33:09;;;;;;;0.20;0.20;;;12.50;99.90;;;;;;5117104;27;20445;-77
2023/04/13 10:35:36;;;;;;;0.20;0.20;;;12.10;99.90;;;;;;5109511;27;20418;-75
2023/04/13 10:38:04;;;;;;;0.20;0.20;;;12.50;99.90;;;;;;5108108;27;20422;-75
2023/04/13 10:40:45;;;;;;;0.10;0.10;;;13.00;99.90;;;;;;5104166;27;20415;-75
2023/04/13 10:43:12;;;;;;;0.20;0.20;;;13.40;99.90;;;;;;5110118;27;20433;-75
2023/04/13 10:45:39;;;;;;;0.40;0.40;;;14.10;99.90;;;;;;5110458;27;20430;-74
2023/04/13 10:48:06;;;;;;;1.30;0.40;;;14.60;99.90;;;;;;5111250;27;20467;-74
2023/04/13 10:50:33;;;;;;;0.20;0.20;;;15.70;99.90;;;;;;5115567;27;20432;-74
2023/04/13 10:53:05;;;;;;;0.20;0.20;;;16.50;99.90;;;;;;5095976;28;20429;-75
2023/04/13 10:55:34;;;;;;;0.22;0.22;;;16.70;99.90;;;;;;5123791;27;20429;-73
2023/04/13 10:58:12;;;;;;;0.30;0.30;;;16.30;99.90;;;;;;5098685;27;20444;-75
2023/04/13 11:00:39;;;;;;;0.30;0.30;;;16.20;99.90;;;;;;5111902;27;20508;-75
2023/04/13 11:03:16;;;;;;;0.28;0.20;;;15.90;99.90;;;;;;5110218;27;20813;-74
2023/04/13 11:05:56;;;;;;;0.50;0.20;;;15.80;99.90;;;;;;5110119;28;20503;-74
2023/04/13 11:08:23;;;;;;;1.20;0.30;;;15.80;99.90;;;;;;5102425;27;20518;-74
2023/04/13 11:10:55;;;;;;;0.17;0.17;;;15.80;99.90;;;;;;5107599;27;20522;-72
2023/04/13 11:13:28;;;;;;;0.80;0.50;;;15.60;99.90;;;;;;5105262;27;20433;-74
2023/04/13 11:16:04;;;;;;;0.20;0.20;;;15.40;99.90;;;;;;5098661;27;20426;-74
2023/04/13 11:18:31;;;;;;;0.30;0.30;;;15.30;99.90;;;;;;5112970;27;20428;-73
2023/04/13 11:21:02;;;;;;;1.00;0.68;;;14.70;99.90;;;;;;5115433;27;20471;-74
2023/04/13 11:23:36;;;;;;;1.00;0.30;;;14.20;99.90;;;;;;5111061;27;20465;-74
2023/04/13 11:26:03;;;;;;;0.30;0.30;;;14.40;99.90;;;;;;5099847;28;20424;-74
2023/04/13 11:28:46;;;;;;;1.00;0.40;;;14.40;99.90;;;;;;5108789;27;20523;-76
2023/04/13 11:31:13;;;;;;;0.73;0.30;;;14.30;99.90;;;;;;5101151;28;20503;-74
2023/04/13 11:33:47;;;;;;;0.40;0.40;;;14.80;99.90;;;;;;5120130;27;20429;-75
2023/04/13 11:36:18;;;;;;;0.50;0.28;;;14.60;99.90;;;;;;5102191;27;20527;-75
2023/04/13 11:38:46;;;;;;;0.30;0.30;;;15.20;99.90;;;;;;5108427;27;20511;-75
2023/04/13 11:41:13;;;;;;;0.43;0.43;;;15.40;99.90;;;;;;5102202;28;20516;-74
2023/04/13 11:43:47;;;;;;;0.80;0.30;;;15.30;99.90;;;;;;5096734;28;20477;-76
2023/04/13 11:46:21;;;;;;;0.10;0.10;;;14.80;99.90;;;;;;5100410;28;20830;-75
2023/04/13 11:48:49;;;;;;;2.00;0.17;;;15.20;99.90;;;;;;5095478;27;20912;-75
2023/04/13 11:51:16;;;;;;;3.70;0.30;;;15.70;99.90;;;;;;5119253;27;20491;-75
2023/04/13 11:53:44;;;;;;;1.50;0.50;;;16.30;99.90;;;;;;5116622;27;20418;-75
2023/04/13 11:56:12;;;;;;;0.50;0.20;;;16.40;99.90;;;;;;5107418;28;20517;-76
2023/04/13 11:58:39;;;;;;;1.20;0.30;;;16.30;99.90;;;;;;5096347;28;20436;-75
2023/04/13 12:01:07;;;;;;;0.20;0.20;;;16.00;99.90;;;;;;5100313;28;20557;-75
2023/04/13 12:03:39;;;;;;;1.35;0.40;;;15.40;99.90;;;;;;5113264;27;20792;-76
2023/04/13 12:06:26;;;;;;;1.00;0.30;;;15.00;99.90;;;;;;5095549;28;20418;-77
2023/04/13 12:09:00;;;;;;;1.20;0.50;;;14.80;99.90;;;;;;5099380;27;20410;-75
2023/04/13 12:11:38;;;;;;;0.13;0.13;;;14.90;99.90;;;;;;5096423;28;20467;-75
2023/04/13 12:14:21;;;;;;;0.20;0.20;;;15.70;99.90;;;;;;5098170;27;20432;-75
2023/04/13 12:16:51;;;;;;;0.28;0.28;;;16.00;99.90;;;;;;5100041;27;20431;-76
2023/04/13 12:19:22;;;;;;;0.70;0.30;;;16.40;99.90;;;;;;5107690;27;20500;-75
2023/04/13 12:21:55;;;;;;;0.30;0.30;;;16.80;99.90;;;;;;5101779;27;20837;-75
2023/04/13 12:24:49;;;;;;;0.50;0.28;;;16.90;99.90;;;;;;5099510;27;20474;-75
2023/04/13 12:27:17;;;;;;;1.10;0.30;;;16.70;99.90;;;;;;5103175;27;20454;-76
2023/04/13 12:29:45;;;;;;;0.57;0.57;;;16.90;99.90;;;;;;5110410;27;20480;-75
2023/04/13 12:32:13;;;;;;;0.35;0.35;;;17.00;99.90;;;;;;5107318;27;20884;-75
2023/04/13 12:34:42;;;;;;;0.38;0.38;;;17.00;99.90;;;;;;5109538;27;20840;-74
2023/04/13 12:37:10;;;;;;;0.50;0.50;;;17.10;99.90;;;;;;5102391;27;20477;-75
2023/04/13 12:39:41;;;;;;;0.30;0.30;;;16.60;99.90;;;;;;5107373;27;20793;-75
2023/04/13 12:42:07;;;;;;;3.40;0.50;;;16.50;99.90;;;;;;5094456;27;20435;-75
2023/04/13 12:44:35;;;;;;;0.90;0.40;;;16.10;99.90;;;;;;5091428;27;20526;-74
2023/04/13 12:47:01;;;;;;;0.40;0.40;;;15.70;99.90;;;;;;5100585;27;20434;-74
2023/04/13 12:49:29;;;;;;;0.50;0.20;;;15.20;99.90;;;;;;5099060;27;20433;-74
2023/04/13 12:51:56;;;;;;;0.55;0.25;;;15.10;99.90;;;;;;5106894;27;20419;-74
2023/04/13 12:54:27;;;;;;;0.20;0.20;;;15.40;99.90;;;;;;5111991;27;20440;-76
2023/04/13 12:56:58;;;;;;;0.20;0.20;;;16.30;99.90;;;;;;5105507;27;20629;-75
2023/04/13 12:59:25;;;;;;;0.20;0.20;;;17.20;99.90;;;;;;5099326;28;20520;-75
2023/04/13 13:01:52;;;;;;;0.20;0.20;;;18.00;99.90;;;;;;5108084;27;20465;-75
2023/04/13 13:04:18;;;;;;;0.20;0.20;;;19.00;99.90;;;;;;5104144;27;20975;-74
2023/04/13 13:06:48;;;;;;;0.20;0.20;;;19.10;99.70;;;;;;5104149;28;20432;-74